Time;durP1;ratioP1;P1;durP2;ratioP2;P2;SDS_P1;SDS_P2;PMS_P1;PMS_P2;Temp;Humidity;BMP_temperature;BMP_pressure;BME280_temperature;BME280_humidity;BME280_pressure;Samples;Min_cycle;Max_cycle;Signal;HPM_P1;HPM_P2
2021/12/24 00:00:26;;;;;;;;;48.75;38.75;;;;;7.75;93.91;100402.28;6247640;22;45217;-73
2021/12/24 00:02:54;;;;;;;;;39.75;35.25;;;;;8.00;93.81;100437.97;6242065;22;45253;-73
2021/12/24 00:05:21;;;;;;;;;36.00;34.00;;;;;8.02;93.64;100441.38;6239962;22;45602;-76
2021/12/24 00:07:46;;;;;;;;;28.50;24.50;;;;;8.03;93.38;100434.38;6212836;22;45317;-74
2021/12/24 00:10:13;;;;;;;;;36.25;29.75;;;;;8.04;93.91;100434.31;6241275;22;45344;-74
2021/12/24 00:12:43;;;;;;;;;38.25;35.00;;;;;8.04;93.82;100428.25;6240421;22;45864;-74
2021/12/24 00:18:01;;;;;;;;;36.00;33.25;;;;;8.05;93.60;100429.94;6240181;22;45314;-74
2021/12/24 00:21:11;;;;;;;;;32.50;29.00;;;;;7.95;93.90;100413.75;6240240;22;45325;-73
2021/12/24 00:36:51;;;;;;;;;35.00;29.67;;;;;8.11;93.79;100414.06;6241322;22;45434;-73
2021/12/24 00:39:17;;;;;;;;;30.00;27.67;;;;;7.80;93.24;100366.41;6242865;22;45502;-73
2021/12/24 00:41:42;;;;;;;;;30.33;25.33;;;;;7.94;93.33;100385.91;6241962;22;45346;-73
2021/12/24 00:44:08;;;;;;;;;35.50;31.75;;;;;8.09;93.48;100408.03;6188687;22;47340;-72
2021/12/24 00:46:34;;;;;;;;;36.67;31.00;;;;;8.21;93.04;100431.13;6243180;22;45326;-74
2021/12/24 00:49:00;;;;;;;;;32.00;30.00;;;;;8.18;93.44;100424.22;6214687;22;45380;-72
2021/12/24 00:51:54;;;;;;;;;27.33;24.00;;;;;8.04;93.68;100399.53;6241282;22;45332;-72
2021/12/24 00:57:02;;;;;;;;;34.00;29.00;;;;;7.93;93.87;100405.13;6241561;22;45387;-73
2021/12/24 00:59:28;;;;;;;;;32.00;27.00;;;;;8.04;94.30;100434.31;6241215;22;45362;-74
2021/12/24 01:01:53;;;;;;;;;34.33;31.33;;;;;8.02;94.32;100424.84;6213718;22;45478;-74
2021/12/24 01:04:19;;;;;;;;;30.67;21.33;;;;;7.62;94.40;100364.44;6241074;22;46897;-74
2021/12/24 01:06:44;;;;;;;;;33.33;30.33;;;;;7.97;94.82;100414.56;6241581;22;45347;-73
2021/12/24 01:09:10;;;;;;;;;35.50;33.75;;;;;7.93;95.02;100421.66;6243202;22;45211;-73
2021/12/24 01:11:36;;;;;;;;;27.67;22.33;;;;;7.38;95.09;100335.69;6242549;22;45375;-73
2021/12/24 01:14:02;;;;;;;;;31.00;27.33;;;;;7.73;95.23;100385.81;6240657;22;47021;-74
2021/12/24 01:16:36;;;;;;;;;31.67;27.33;;;;;7.77;95.80;100408.28;6241385;22;45115;-74
2021/12/24 01:19:11;;;;;;;;;36.75;29.50;;;;;7.74;96.32;100418.00;6241794;22;45279;-73
2021/12/24 01:21:56;;;;;;;;;32.67;24.33;;;;;7.72;96.46;100412.81;6241733;22;45614;-73
2021/12/24 01:24:29;;;;;;;;;35.67;29.33;;;;;7.55;96.48;100396.88;6241482;22;46037;-74
2021/12/24 01:27:10;;;;;;;;;33.33;28.33;;;;;7.54;96.62;100397.81;6214552;22;45758;-73
2021/12/24 01:40:38;;;;;;;;;34.67;30.67;;;;;7.67;96.45;100387.78;6177899;23;45307;-73
2021/12/24 01:43:04;;;;;;;;;34.00;28.00;;;;;7.20;96.06;100299.78;6179104;23;45404;-73
2021/12/24 01:45:32;;;;;;;;;27.00;22.67;;;;;7.74;95.57;100379.66;6177996;23;46184;-72
2021/12/24 01:48:04;;;;;;;;;36.00;30.00;;;;;7.81;95.37;100396.81;6177940;23;45353;-74
2021/12/24 01:50:33;;;;;;;;;27.00;26.33;;;;;6.91;95.85;100254.72;6178951;23;45250;-73
2021/12/24 01:52:59;;;;;;;;;35.33;33.33;;;;;7.20;95.49;100299.78;6178742;23;45318;-73
2021/12/24 01:55:26;;;;;;;;;33.00;28.67;;;;;7.42;95.64;100344.25;6187181;23;44931;-73
2021/12/24 01:57:52;;;;;;;;;27.00;22.33;;;;;7.72;95.60;100397.16;6185586;23;44773;-73
2021/12/24 02:00:20;;;;;;;;;21.67;13.00;;;;;7.62;95.69;100398.38;6178165;23;45354;-73
2021/12/24 02:02:47;;;;;;;;;31.67;24.00;;;;;7.58;96.90;100384.56;6178466;23;45203;-71
2021/12/24 02:05:14;;;;;;;;;30.33;25.00;;;;;7.55;96.68;100381.22;6151962;23;47427;-74
2021/12/24 02:07:40;;;;;;;;;32.33;24.33;;;;;7.75;96.04;100409.25;6178040;23;45588;-73
2021/12/24 02:10:09;;;;;;;;;26.67;25.33;;;;;7.76;95.62;100406.59;6178525;23;45375;-73
2021/12/24 02:12:35;;;;;;;;;29.00;24.33;;;;;7.77;95.50;100408.28;6177500;23;45359;-73
2021/12/24 02:15:06;;;;;;;;;33.00;27.00;;;;;7.53;95.76;100370.84;6177309;23;47896;-73
2021/12/24 02:28:40;;;;;;;;;32.00;28.00;;;;;7.64;94.98;100361.75;6178639;23;45307;-72
2021/12/24 02:31:08;;;;;;;;;26.33;24.33;;;;;7.85;95.12;100404.56;6179237;23;45397;-72
2021/12/24 02:33:34;;;;;;;;;29.33;22.67;;;;;7.80;95.11;100392.50;6203741;22;45333;-72
2021/12/24 02:36:00;;;;;;;;;28.67;25.67;;;;;7.73;95.38;100385.81;6178238;23;45848;-73
2021/12/24 02:38:25;;;;;;;;;27.00;23.67;;;;;7.84;95.20;100406.31;6178633;23;45387;-73
2021/12/24 02:40:51;;;;;;;;;22.67;21.33;;;;;7.64;nan;100364.38;6178374;23;45411;-73
2021/12/24 02:43:20;;;;;;;;;32.00;29.67;;;;;7.81;94.90;100386.38;6181016;23;45355;-73
2021/12/24 02:45:47;;;;;;;;;21.67;21.67;;;;;7.93;94.58;100403.38;6180017;23;46165;-73
2021/12/24 02:56:18;;;;;;;;;29.00;26.67;;;;;7.78;94.66;100360.38;6195150;22;45390;-73
2021/12/24 02:58:48;;;;;;;;;33.00;23.00;;;;;7.94;94.50;100384.19;6240497;22;45361;-73
2021/12/24 03:01:17;;;;;;;;;26.00;23.33;;;;;7.72;94.22;100338.84;6241396;22;45231;-73
2021/12/24 03:03:48;;;;;;;;;29.00;24.67;;;;;7.97;94.38;100383.22;6241296;22;45190;-74
2021/12/24 03:06:14;;;;;;;;;31.33;28.67;;;;;8.03;94.43;100392.56;6241500;22;45961;-74
2021/12/24 03:08:40;;;;;;;;;28.00;23.00;;;;;7.93;94.35;100379.00;6241753;22;45251;-74
2021/12/24 03:11:06;;;;;;;;;27.00;23.67;;;;;7.93;94.07;100373.78;6241282;22;45260;-74
2021/12/24 03:13:32;;;;;;;;;32.33;29.67;;;;;7.94;94.32;100370.25;6241302;22;45407;-72
2021/12/24 03:15:58;;;;;;;;;25.33;23.67;;;;;7.93;94.07;100373.78;6240893;22;46152;-73
2021/12/24 03:18:28;;;;;;;;;27.33;26.33;;;;;8.07;94.04;100396.81;6240507;22;45284;-72
2021/12/24 03:21:03;;;;;;;;;34.00;29.00;;;;;7.95;94.08;100364.97;6241265;22;45307;-73
2021/12/24 03:23:38;;;;;;;;;28.33;24.67;;;;;7.73;94.08;100328.34;6241721;22;45287;-72
2021/12/24 03:26:05;;;;;;;;;27.00;26.00;;;;;8.05;94.22;100373.34;6241128;22;47486;-72
2021/12/24 03:28:31;;;;;;;;;27.67;23.33;;;;;8.04;94.19;100376.84;6241031;22;45474;-72
2021/12/24 03:30:59;;;;;;;;;30.00;23.00;;;;;7.92;94.18;100361.63;6241162;22;45299;-73
2021/12/24 03:33:24;;;;;;;;;31.00;26.00;;;;;7.97;94.84;100378.81;6241694;22;45394;-73
2021/12/24 03:35:50;;;;;;;;;30.67;28.00;;;;;7.97;94.36;100372.75;6241536;22;46019;-72
2021/12/24 03:38:15;;;;;;;;;35.67;26.67;;;;;7.88;94.13;100346.97;6241907;22;45287;-72
2021/12/24 03:40:41;;;;;;;;;25.00;21.33;;;;;7.97;94.31;100362.31;6214080;22;45644;-72
2021/12/24 03:43:06;;;;;;;;;31.00;25.00;;;;;7.97;94.36;100364.91;6241391;22;45171;-72
2021/12/24 03:45:43;;;;;;;;;37.00;28.33;;;;;7.96;94.44;100366.69;6241355;22;45154;-72
2021/12/24 03:48:20;;;;;;;;;29.00;25.00;;;;;7.82;94.64;100358.50;6240925;22;45323;-72
2021/12/24 03:55:58;;;;;;;;;33.00;26.67;;;;;7.74;95.31;100369.22;6243100;22;45361;-73
2021/12/24 03:58:23;;;;;;;;;31.00;27.00;;;;;7.68;95.51;100366.84;6215149;22;45423;-73
2021/12/24 04:00:49;;;;;;;;;24.33;22.00;;;;;7.61;95.79;100360.13;6242373;22;45669;-73
2021/12/24 04:03:15;;;;;;;;;38.00;30.67;;;;;7.57;96.02;100364.59;6241779;22;45352;-73
2021/12/24 04:05:40;;;;;;;;;32.33;29.00;;;;;7.54;96.43;100361.25;6241888;22;46139;-74
2021/12/24 04:08:06;;;;;;;;;35.67;34.00;;;;;7.45;96.55;100359.81;6240783;22;45378;-74
2021/12/24 04:10:50;;;;;;;;;28.67;23.67;;;;;7.51;96.79;100359.59;6240468;22;45241;-73
2021/12/24 04:13:16;;;;;;;;;25.67;23.67;;;;;7.54;96.65;100367.31;6240962;22;45360;-73
2021/12/24 04:15:41;;;;;;;;;32.75;31.75;;;;;7.58;96.44;100365.44;6240550;22;45220;-73
2021/12/24 04:18:15;;;;;;;;;35.75;29.50;;;;;7.32;96.51;100320.25;6240691;22;45160;-73
2021/12/24 04:26:09;;;;;;;;;37.00;31.33;;;;;7.48;95.40;100325.78;6241127;22;45379;-73
2021/12/24 04:28:34;;;;;;;;;26.33;22.33;;;;;7.75;95.40;100373.53;6241914;22;45382;-73
2021/12/24 04:31:01;;;;;;;;;28.00;27.00;;;;;7.20;94.80;100268.50;6240314;22;45308;-73
2021/12/24 04:33:33;;;;;;;;;29.67;27.00;;;;;7.79;94.83;100366.44;6241860;22;45308;-73
2021/12/24 04:36:09;;;;;;;;;32.67;29.33;;;;;7.77;94.75;100363.88;6241668;22;45362;-73
2021/12/24 04:52:20;;;;;;;;;27.00;25.00;;;;;7.63;nan;100350.47;6240404;22;45332;-73
2021/12/24 05:03:04;;;;;;;;;23.33;20.67;;;;;7.43;95.65;100345.97;6240812;22;45390;-72
2021/12/24 05:10:37;;;;;;;;;37.33;30.67;;;;;7.32;96.17;100343.75;6242811;22;45386;-73
2021/12/24 05:13:03;;;;;;;;;38.67;34.00;;;;;7.31;95.96;100355.06;6242548;22;45689;-73
2021/12/24 05:15:30;;;;;;;;;37.33;28.67;;;;;7.29;96.03;100356.03;6242870;22;45304;-73
2021/12/24 05:23:08;;;;;;;;;25.00;23.33;;;;;7.18;96.15;100352.03;6243473;22;45209;-72
2021/12/24 05:25:42;;;;;;;;;34.00;27.00;;;;;7.24;96.12;100369.22;6244113;22;45206;-73
2021/12/24 05:28:07;;;;;;;;;32.00;25.33;;;;;7.08;96.38;100350.63;6214902;22;46228;-72
2021/12/24 05:30:33;;;;;;;;;32.33;31.33;;;;;7.16;96.12;100356.44;6213776;22;45300;-73
2021/12/24 05:32:58;;;;;;;;;26.00;22.00;;;;;7.15;96.66;100351.28;6241983;22;45347;-73
2021/12/24 05:35:24;;;;;;;;;22.00;20.00;;;;;7.13;96.41;100348.72;6242728;22;45367;-73
2021/12/24 05:37:49;;;;;;;;;32.00;25.00;;;;;6.74;96.80;100281.34;6241619;22;45429;-73
2021/12/24 05:40:14;;;;;;;;;30.67;26.33;;;;;6.99;96.83;100323.09;6242146;22;45252;-74
2021/12/24 05:42:40;;;;;;;;;25.33;23.00;;;;;6.87;96.66;100300.03;6242100;22;45298;-73
2021/12/24 05:45:07;;;;;;;;;26.00;23.67;;;;;7.09;96.64;100341.91;6241824;22;45387;-73
2021/12/24 05:47:33;;;;;;;;;28.33;24.67;;;;;7.07;96.93;100335.91;6241143;22;47541;-73
2021/12/24 05:50:00;;;;;;;;;31.00;19.33;;;;;6.92;96.70;100319.00;6245442;22;45278;-72
2021/12/24 05:52:26;;;;;;;;;26.00;20.67;;;;;7.04;97.33;100349.03;6248787;22;45348;-73
2021/12/24 05:54:52;;;;;;;;;31.67;25.67;;;;;7.03;97.14;100335.16;6217960;22;45398;-73
2021/12/24 05:57:18;;;;;;;;;27.33;21.00;;;;;7.03;96.89;100335.16;6242408;22;46188;-73
2021/12/24 05:59:43;;;;;;;;;27.67;24.33;;;;;6.87;96.85;100315.69;6242366;22;45216;-72
2021/12/24 06:02:09;;;;;;;;;32.33;26.33;;;;;6.63;96.78;100286.91;6241696;22;45251;-73
2021/12/24 06:04:35;;;;;;;;;27.33;20.00;;;;;6.62;96.96;100282.59;6214621;22;45415;-73
2021/12/24 06:07:00;;;;;;;;;23.67;22.33;;;;;6.96;97.15;100345.81;6242070;22;45403;-73
2021/12/24 06:09:26;;;;;;;;;32.67;26.33;;;;;6.95;96.80;100344.13;6214836;22;45468;-73
2021/12/24 06:11:51;;;;;;;;;27.00;23.00;;;;;6.59;97.41;100285.31;6242322;22;45235;-72
2021/12/24 06:14:18;;;;;;;;;31.67;28.00;;;;;6.90;97.57;100339.06;6241165;22;45141;-73
2021/12/24 06:16:59;;;;;;;;;23.67;22.33;;;;;6.94;97.57;100334.59;6241924;22;45932;-73
2021/12/24 06:19:26;;;;;;;;;26.67;24.00;;;;;6.94;97.50;100345.03;6218368;22;45392;-73
2021/12/24 06:21:55;;;;;;;;;29.33;24.67;;;;;6.99;97.30;100350.94;6242568;22;45187;-73
2021/12/24 06:24:20;;;;;;;;;29.00;23.00;;;;;7.01;97.09;100346.53;6243965;22;45224;-73
2021/12/24 06:26:47;;;;;;;;;25.33;21.67;;;;;6.82;96.92;100305.41;6244117;22;46061;-74
2021/12/24 06:29:12;;;;;;;;;29.67;24.00;;;;;6.56;96.50;100258.50;6243731;22;45276;-73
2021/12/24 06:31:38;;;;;;;;;35.67;24.00;;;;;6.92;96.27;100310.31;6243510;22;45433;-73
2021/12/24 06:34:04;;;;;;;;;32.00;26.33;;;;;7.24;95.87;100358.78;6244028;22;45280;-72
2021/12/24 06:36:34;;;;;;;;;35.00;25.67;;;;;7.28;95.74;100360.38;6243325;22;46011;-73
2021/12/24 06:38:59;;;;;;;;;23.00;16.00;;;;;7.33;95.36;100355.88;6242545;22;45291;-73
2021/12/24 06:41:24;;;;;;;;;25.00;20.67;;;;;6.91;94.99;100278.19;6213786;22;45450;-72
2021/12/24 06:43:50;;;;;;;;;23.67;21.67;;;;;6.68;95.08;100245.06;6241563;22;45200;-73
2021/12/24 06:46:15;;;;;;;;;31.67;25.00;;;;;7.31;94.74;100349.84;6242664;22;45292;-73
2021/12/24 06:48:41;;;;;;;;;23.00;22.33;;;;;7.28;94.97;100351.72;6241813;22;45386;-73
2021/12/24 06:51:07;;;;;;;;;20.67;19.33;;;;;7.26;94.91;100348.31;6241325;22;45267;-73
2021/12/24 06:53:32;;;;;;;;;27.67;22.33;;;;;7.22;95.02;100339.72;6240944;22;45373;-73
2021/12/24 06:55:58;;;;;;;;;26.67;24.67;;;;;7.19;95.29;100353.72;6241933;22;45335;-72
2021/12/24 06:58:23;;;;;;;;;36.67;31.00;;;;;7.09;95.28;100341.91;6241664;22;45367;-72
2021/12/24 07:00:49;;;;;;;;;28.33;27.00;;;;;7.23;95.28;100359.72;6213683;22;45319;-73
2021/12/24 07:03:14;;;;;;;;;31.33;22.00;;;;;7.22;95.41;100356.22;6240653;22;45349;-73
2021/12/24 07:05:40;;;;;;;;;31.33;26.33;;;;;7.24;95.23;100362.25;6242576;22;45331;-73
2021/12/24 07:08:05;;;;;;;;;28.00;25.00;;;;;7.23;95.04;100357.94;6242763;22;45447;-75
2021/12/24 07:10:31;;;;;;;;;23.67;21.33;;;;;7.10;95.05;100333.16;6215402;22;45335;-73
2021/12/24 07:12:56;;;;;;;;;35.00;28.00;;;;;6.97;95.12;100311.03;6242470;22;45390;-72
2021/12/24 07:15:22;;;;;;;;;27.00;24.00;;;;;7.18;95.08;100349.41;6242396;22;45780;-72
2021/12/24 07:17:48;;;;;;;;;35.33;30.33;;;;;7.16;94.78;100356.44;6215085;22;45210;-73
2021/12/24 07:20:14;;;;;;;;;36.00;26.67;;;;;7.04;94.86;100334.22;6242741;22;45211;-75
2021/12/24 07:22:39;;;;;;;;;35.33;26.00;;;;;7.03;95.02;100334.28;6214478;22;45451;-74
2021/12/24 07:25:06;;;;;;;;;28.33;26.00;;;;;6.83;95.00;100312.31;6242135;22;46060;-73
2021/12/24 07:27:32;;;;;;;;;28.67;23.33;;;;;7.17;94.99;100355.53;6241827;22;45261;-73
2021/12/24 07:29:58;;;;;;;;;24.33;21.33;;;;;7.06;95.10;100335.94;6214625;22;45336;-73
2021/12/24 07:32:23;;;;;;;;;31.33;29.33;;;;;7.21;94.59;100357.16;6241519;22;45285;-72
2021/12/24 07:34:49;;;;;;;;;25.00;20.33;;;;;6.57;94.47;100241.94;6241252;22;46276;-72
2021/12/24 07:37:14;;;;;;;;;31.67;26.00;;;;;7.16;94.52;100338.19;6242422;22;45399;-73
2021/12/24 07:39:41;;;;;;;;;29.33;25.00;;;;;6.55;94.42;100244.59;6242031;22;45298;-73
2021/12/24 07:42:06;;;;;;;;;27.00;23.67;;;;;7.06;94.88;100335.94;6242455;22;45276;-73
2021/12/24 07:44:34;;;;;;;;;37.00;31.67;;;;;6.67;94.58;100277.22;6243657;22;46915;-74
2021/12/24 07:47:02;;;;;;;;;30.67;27.67;;;;;6.82;94.85;100301.94;6216767;22;45212;-76
2021/12/24 07:54:32;;;;;;;;;32.33;27.67;;;;;6.80;95.37;100317.66;6241319;22;45229;-75
2021/12/24 07:56:58;;;;;;;;;40.33;34.00;;;;;6.83;95.25;100319.28;6214124;22;45329;-73
2021/12/24 07:59:26;;;;;;;;;37.50;34.25;;;;;6.81;95.50;100321.09;6241246;22;45303;-72
2021/12/24 08:01:53;;;;;;;;;33.75;31.00;;;;;6.79;95.48;100335.97;6241754;22;45410;-73
2021/12/24 08:04:19;;;;;;;;;34.00;27.67;;;;;6.78;95.44;100327.25;6241674;22;45287;-72
2021/12/24 08:06:44;;;;;;;;;34.00;31.75;;;;;6.78;95.23;100336.84;6241798;22;45382;-73
2021/12/24 08:09:10;;;;;;;;;34.00;28.75;;;;;6.75;95.00;100332.59;6214023;22;45417;-73
2021/12/24 08:11:36;;;;;;;;;35.75;29.25;;;;;6.59;95.47;100319.19;6242168;22;45362;-73
2021/12/24 08:14:03;;;;;;;;;35.33;27.00;;;;;6.39;95.41;100288.53;6222734;22;47030;-78
2021/12/24 08:16:30;;;;;;;;;43.75;30.25;;;;;6.72;95.42;100344.88;6243179;22;45243;-76
2021/12/24 08:18:56;;;;;;;;;36.50;29.75;;;;;6.73;95.23;100349.19;6214938;22;45346;-75
2021/12/24 08:21:22;;;;;;;;;36.25;30.25;;;;;6.75;95.12;100344.75;6214065;22;45372;-74
2021/12/24 08:23:48;;;;;;;;;34.50;30.50;;;;;6.64;95.12;100334.69;6241764;22;45345;-73
2021/12/24 08:26:15;;;;;;;;;46.50;35.00;;;;;6.51;95.01;100308.16;6241127;22;45453;-73
2021/12/24 08:28:40;;;;;;;;;41.00;32.25;;;;;6.83;94.88;100359.25;6241126;22;45383;-73
2021/12/24 08:31:06;;;;;;;;;43.50;34.25;;;;;6.85;94.65;100356.59;6213868;22;45535;-73
2021/12/24 08:33:34;;;;;;;;;41.75;34.50;;;;;6.91;94.80;100360.75;6241430;22;45222;-73
2021/12/24 08:35:59;;;;;;;;;36.75;36.00;;;;;6.57;94.59;100297.56;6241643;22;45134;-73
2021/12/24 08:38:24;;;;;;;;;32.33;27.00;;;;;6.94;94.43;100350.25;6241680;22;45255;-74
2021/12/24 08:40:50;;;;;;;;;35.00;31.00;;;;;6.86;94.30;100324.41;6241472;22;45175;-73
2021/12/24 08:43:15;;;;;;;;;33.25;29.50;;;;;6.31;94.14;100229.75;6214016;22;45957;-74
2021/12/24 08:45:40;;;;;;;;;37.25;29.75;;;;;6.90;93.97;100330.38;6243097;22;45247;-73
2021/12/24 08:48:06;;;;;;;;;34.00;29.50;;;;;7.04;94.08;100342.06;6243180;22;45458;-74
2021/12/24 08:50:31;;;;;;;;;42.00;35.25;;;;;7.03;94.10;100335.16;6242825;22;45366;-72
2021/12/24 08:52:57;;;;;;;;;36.50;33.25;;;;;6.68;94.29;100268.53;6242221;22;46932;-73
2021/12/24 08:55:22;;;;;;;;;35.00;29.67;;;;;7.09;93.87;100352.34;6243039;22;45391;-73
2021/12/24 08:57:47;;;;;;;;;35.50;31.25;;;;;7.15;94.02;100362.56;6242124;22;45550;-73
2021/12/24 09:00:14;;;;;;;;;40.00;32.67;;;;;7.20;93.58;100360.66;6243075;22;45328;-73
2021/12/24 09:02:41;;;;;;;;;42.00;34.00;;;;;7.31;93.29;100357.69;6242066;22;47367;-74
2021/12/24 09:05:08;;;;;;;;;38.33;28.67;;;;;7.35;92.83;100359.25;6242939;22;45178;-74
2021/12/24 09:07:35;;;;;;;;;37.00;30.50;;;;;7.34;92.79;100351.53;6243360;22;45323;-75
2021/12/24 09:10:01;;;;;;;;;40.33;33.00;;;;;6.95;92.81;100284.16;6241779;22;45261;-74
2021/12/24 09:12:26;;;;;;;;;38.33;34.00;;;;;6.76;92.79;100234.34;6243352;22;45402;-73
2021/12/24 09:14:53;;;;;;;;;32.00;29.33;;;;;7.30;92.66;100305.53;6243113;22;45445;-74
2021/12/24 09:17:20;;;;;;;;;38.33;35.33;;;;;7.66;92.26;100336.44;6242524;22;45430;-73
2021/12/24 09:19:48;;;;;;;;;34.50;31.25;;;;;7.24;91.52;100257.88;6243189;22;45351;-74
2021/12/24 09:22:17;;;;;;;;;35.75;33.00;;;;;7.76;91.22;100330.00;6241660;22;45312;-72
2021/12/24 09:24:48;;;;;;;;;35.50;32.00;;;;;7.79;91.33;100324.66;6242357;22;45367;-73
2021/12/24 09:27:14;;;;;;;;;42.50;33.25;;;;;7.49;91.26;100263.97;6215060;22;45339;-72
2021/12/24 09:29:39;;;;;;;;;38.00;32.75;;;;;7.94;91.20;100320.63;6242139;22;45195;-72
2021/12/24 09:32:05;;;;;;;;;34.67;31.00;;;;;8.03;90.52;100315.06;6242768;22;45237;-73
2021/12/24 09:34:31;;;;;;;;;26.00;21.67;;;;;7.95;90.36;100278.75;6242896;22;45600;-73
2021/12/24 09:36:56;;;;;;;;;37.25;33.00;;;;;8.17;89.79;100304.94;6242549;22;45455;-73
2021/12/24 09:39:22;;;;;;;;;39.00;33.00;;;;;8.22;89.41;100311.72;6243232;22;45391;-72
2021/12/24 09:41:48;;;;;;;;;41.67;36.00;;;;;8.15;89.08;100306.75;6217773;22;48255;-72
2021/12/24 09:44:14;;;;;;;;;35.25;34.50;;;;;8.05;89.33;100308.03;6246722;22;45341;-74
2021/12/24 09:46:42;;;;;;;;;32.75;30.00;;;;;7.75;89.88;100274.31;6243248;22;45347;-74
2021/12/24 09:49:09;;;;;;;;;40.25;35.25;;;;;7.84;90.12;100308.84;6242754;22;45309;-76
2021/12/24 09:51:41;;;;;;;;;43.00;28.75;;;;;7.90;90.45;100303.38;6242494;22;46021;-77
2021/12/24 09:54:15;;;;;;;;;39.25;34.50;;;;;8.05;89.90;100312.38;6241336;22;45248;-75
2021/12/24 09:56:41;;;;;;;;;35.00;28.50;;;;;8.14;89.13;100307.66;6242260;22;45446;-77
2021/12/24 09:59:07;;;;;;;;;35.00;31.75;;;;;8.16;88.77;100307.59;6242157;22;45309;-74
2021/12/24 10:01:35;;;;;;;;;36.50;34.75;;;;;8.27;88.51;100321.09;6214455;22;46583;-74
2021/12/24 10:04:13;;;;;;;;;44.50;35.00;;;;;8.26;88.21;100322.03;6214797;22;45371;-74
2021/12/24 10:06:40;;;;;;;;;31.67;28.67;;;;;8.29;88.45;100313.19;6215480;22;45200;-75
2021/12/24 10:09:05;;;;;;;;;37.25;34.50;;;;;8.41;87.99;100327.56;6242573;22;45210;-75
2021/12/24 10:11:51;;;;;;;;;36.75;31.50;;;;;7.87;87.80;100236.44;6242060;22;46236;-72
2021/12/24 10:14:22;;;;;;;;;30.75;28.25;;;;;8.10;87.84;100263.41;6241742;22;45320;-73
2021/12/24 10:16:51;;;;;;;;;38.75;34.75;;;;;8.48;87.62;100315.97;6242614;22;45395;-73
2021/12/24 10:19:16;;;;;;;;;39.33;33.00;;;;;8.54;88.00;100328.78;6242247;22;45157;-74
2021/12/24 10:21:44;;;;;;;;;46.00;35.33;;;;;8.59;87.52;100333.84;6241854;22;45248;-72
2021/12/24 10:24:16;;;;;;;;;39.50;34.25;;;;;8.50;87.00;100306.31;6240306;22;45824;-72
2021/12/24 10:26:48;;;;;;;;;44.75;37.00;;;;;8.59;87.39;100315.53;6241738;22;45351;-72
2021/12/24 10:29:33;;;;;;;;;39.25;36.00;;;;;8.65;87.22;100318.78;6241674;22;45343;-72
2021/12/24 10:32:14;;;;;;;;;34.00;30.50;;;;;8.57;87.02;100295.53;6242176;22;46466;-73
2021/12/24 10:34:42;;;;;;;;;41.25;34.50;;;;;7.80;86.38;100162.69;6214846;22;45279;-71
2021/12/24 10:37:22;;;;;;;;;37.25;35.25;;;;;8.83;87.00;100321.53;6242406;22;45344;-71
2021/12/24 10:39:54;;;;;;;;;32.33;31.33;;;;;8.84;86.21;100318.84;6241664;22;45127;-71
2021/12/24 10:42:37;;;;;;;;;38.00;34.33;;;;;8.70;86.34;100277.56;6241801;22;45987;-71
2021/12/24 10:45:23;;;;;;;;;40.00;35.00;;;;;8.85;86.40;100301.41;6242280;22;45461;-73
2021/12/24 10:47:48;;;;;;;;;50.00;37.00;;;;;8.79;86.15;100297.25;6241451;22;45331;-71
2021/12/24 10:55:23;;;;;;;;;40.33;33.33;;;;;8.76;86.44;100302.63;6244584;22;45146;-72
2021/12/24 10:57:53;;;;;;;;;39.67;34.00;;;;;8.51;86.44;100240.88;6243590;22;45420;-71
2021/12/24 11:00:25;;;;;;;;;39.33;33.33;;;;;9.01;85.97;100291.16;6242690;22;45352;-72
2021/12/24 11:02:57;;;;;;;;;38.00;34.67;;;;;9.16;85.55;100289.63;6242260;22;45409;-72
2021/12/24 11:05:38;;;;;;;;;40.33;34.33;;;;;9.25;84.88;100289.22;6214415;22;45687;-73
2021/12/24 11:08:19;;;;;;;;;46.00;36.75;;;;;9.31;84.57;100281.13;6241928;22;45292;-72
2021/12/24 11:10:50;;;;;;;;;32.67;27.33;;;;;9.36;84.01;100268.66;6242245;22;45305;-72
2021/12/24 11:13:21;;;;;;;;;36.33;30.00;;;;;9.34;84.66;100270.50;6241945;22;46140;-73
2021/12/24 11:15:49;;;;;;;;;45.00;35.00;;;;;9.06;83.97;100222.00;6241559;22;45217;-74
2021/12/24 11:18:17;;;;;;;;;40.00;35.67;;;;;9.18;84.56;100269.47;6242271;22;45342;-74
2021/12/24 11:20:44;;;;;;;;;42.00;35.00;;;;;9.05;85.32;100253.47;6240733;22;45351;-73
2021/12/24 11:23:13;;;;;;;;;43.67;36.00;;;;;9.08;85.32;100269.88;6241404;22;45281;-72
2021/12/24 11:25:45;;;;;;;;;49.00;37.00;;;;;8.78;85.91;100222.34;6242418;22;45391;-77
2021/12/24 11:28:13;;;;;;;;;40.00;33.25;;;;;9.08;85.89;100269.88;6242241;22;45383;-74
2021/12/24 11:30:43;;;;;;;;;42.25;33.75;;;;;9.14;85.71;100266.97;6241927;22;45315;-73
2021/12/24 11:33:13;;;;;;;;;40.00;35.00;;;;;9.03;85.46;100235.19;6242158;22;45363;-71
2021/12/24 11:35:39;;;;;;;;;46.25;35.75;;;;;8.87;85.33;100214.09;6242073;22;45186;-72
2021/12/24 11:38:06;;;;;;;;;47.00;37.00;;;;;9.23;85.26;100257.03;6243687;22;45214;-72
2021/12/24 11:40:32;;;;;;;;;45.25;37.25;;;;;9.37;84.94;100241.56;6248452;22;45079;-72
2021/12/24 11:43:03;;;;;;;;;41.50;37.00;;;;;9.45;84.43;100252.56;6243718;22;47374;-72
2021/12/24 11:45:29;;;;;;;;;49.25;38.25;;;;;9.21;83.93;100193.44;6242533;22;45319;-73
2021/12/24 11:47:56;;;;;;;;;45.25;38.00;;;;;9.55;83.34;100249.53;6242477;22;45302;-72
2021/12/24 11:50:24;;;;;;;;;33.25;30.00;;;;;9.48;84.02;100226.22;6214876;22;45843;-72
2021/12/24 11:52:51;;;;;;;;;49.00;39.50;;;;;9.67;83.75;100239.31;6242131;22;46148;-72
2021/12/24 11:55:18;;;;;;;;;48.50;37.75;;;;;9.76;83.17;100224.97;6241480;22;45317;-73
2021/12/24 11:58:00;;;;;;;;;44.75;36.50;;;;;9.56;83.07;100177.88;6213913;22;45324;-72
2021/12/24 12:00:34;;;;;;;;;42.25;35.50;;;;;9.59;82.68;100144.53;6214085;22;45328;-72
2021/12/24 12:03:00;;;;;;;;;37.50;31.50;;;;;9.84;81.67;100172.19;6241921;22;45399;-73
2021/12/24 12:05:34;;;;;;;;;42.25;36.25;;;;;10.17;81.12;100198.53;6241565;22;45285;-74
2021/12/24 12:08:25;;;;;;;;;31.33;29.67;;;;;10.36;81.03;100197.69;6242274;22;45721;-73
2021/12/24 12:11:05;;;;;;;;;42.00;36.00;;;;;10.52;80.32;100190.75;6242666;22;45298;-74
2021/12/24 12:14:01;;;;;;;;;38.33;34.67;;;;;10.72;79.60;100181.84;6241425;22;46331;-74
2021/12/24 12:16:38;;;;;;;;;34.25;32.75;;;;;10.77;78.77;100179.84;6118328;23;45378;-73
2021/12/24 12:19:36;;;;;;;;;38.25;34.75;;;;;10.82;79.03;100179.63;6120146;23;45306;-73
2021/12/24 12:22:11;;;;;;;;;39.00;35.50;;;;;10.80;78.45;100177.06;6119554;23;45434;-74
2021/12/24 12:25:09;;;;;;;;;35.67;34.00;;;;;10.69;78.63;100175.91;6119994;23;45433;-74
2021/12/24 12:27:34;;;;;;;;;40.33;35.33;;;;;10.57;78.81;100175.63;6061296;23;45500;-75
2021/12/24 12:30:21;;;;;;;;;40.00;33.33;;;;;10.49;79.82;100174.31;6062077;23;45508;-75
2021/12/24 12:32:47;;;;;;;;;40.00;33.67;;;;;10.47;79.62;100169.16;6061105;23;45275;-74
2021/12/24 12:35:14;;;;;;;;;32.67;29.33;;;;;10.35;79.13;100161.88;6061380;23;46401;-73
2021/12/24 12:37:54;;;;;;;;;35.00;32.67;;;;;10.38;79.30;100175.69;6061351;23;45463;-74
2021/12/24 12:40:19;;;;;;;;;35.67;33.00;;;;;10.41;80.07;100172.94;6061286;23;45401;-75
2021/12/24 12:42:56;;;;;;;;;37.67;34.00;;;;;10.42;79.82;100171.97;6060848;23;45474;-76
2021/12/24 12:45:41;;;;;;;;;34.67;33.67;;;;;10.38;79.66;100174.84;6060947;23;47090;-75
2021/12/24 12:48:10;;;;;;;;;36.33;30.67;;;;;10.31;79.51;100181.28;6039234;23;45335;-76
2021/12/24 12:50:36;;;;;;;;;29.33;27.33;;;;;10.28;79.84;100172.63;6060699;23;45433;-75
2021/12/24 12:53:31;;;;;;;;;36.00;31.00;;;;;10.37;80.02;100178.38;6082611;23;45305;-75
2021/12/24 12:56:30;;;;;;;;;30.00;26.00;;;;;10.33;79.57;100169.00;6093953;23;46629;-75
2021/12/24 12:59:06;;;;;;;;;44.75;36.00;;;;;10.40;79.22;100167.75;6063406;23;45510;-76
2021/12/24 13:01:47;;;;;;;;;42.00;30.67;;;;;10.39;79.02;100161.66;6089697;23;45226;-76
2021/12/24 13:04:14;;;;;;;;;34.00;24.00;;;;;10.39;79.02;100140.69;6114060;23;45261;-74
2021/12/24 13:06:41;;;;;;;;;39.00;34.00;;;;;10.45;79.35;100153.47;6149362;23;45925;-74